Time;durP1;ratioP1;P1;durP2;ratioP2;P2;SDS_P1;SDS_P2;PMS_P1;PMS_P2;Temp;Humidity;BMP_temperature;BMP_pressure;BME280_temperature;BME280_humidity;BME280_pressure;Samples;Min_cycle;Max_cycle;Signal;HPM_P1;HPM_P2
2021/09/01 00:02:45;;;;;;;5.80;3.80;;;;;;;26.48;42.41;100676.98;111746;1222;61047;-85
2021/09/01 00:05:54;;;;;;;6.40;3.80;;;;;;;26.48;42.57;100670.85;111700;1229;73376;-90
2021/09/01 00:08:49;;;;;;;7.50;4.10;;;;;;;26.47;42.42;100674.56;111171;1227;65748;-82
2021/09/01 00:11:35;;;;;;;5.70;3.80;;;;;;;26.47;42.46;100672.56;111082;1233;61131;-85
2021/09/01 00:14:35;;;;;;;7.20;4.60;;;;;;;26.47;42.42;100671.83;110749;1236;61769;-82
2021/09/01 00:17:24;;;;;;;5.70;4.20;;;;;;;26.47;42.46;100672.73;110776;1230;62865;-86
2021/09/01 00:20:14;;;;;;;;;;;;;;;;;;;;;
2021/09/01 00:23:38;;;;;;;5.10;3.80;;;;;;;26.47;42.47;100670.57;110683;1236;61106;-90
2021/09/01 00:26:35;;;;;;;6.20;3.90;;;;;;;26.47;42.43;100671.17;110635;1237;61108;-88
2021/09/01 00:29:26;;;;;;;6.00;3.80;;;;;;;26.47;42.43;100675.13;110564;1239;63763;-83
2021/09/01 00:32:13;;;;;;;5.90;4.30;;;;;;;26.47;42.57;100680.52;110602;1237;66933;-88
2021/09/01 00:34:59;;;;;;;5.90;3.90;;;;;;;26.47;42.59;100686.84;110626;1237;61032;-84
2021/09/01 00:37:45;;;;;;;5.90;4.10;;;;;;;26.47;42.60;100686.67;110648;1238;60897;-89
2021/09/01 00:40:31;;;;;;;5.70;4.00;;;;;;;26.47;42.53;100686.10;110709;1236;63767;-85
2021/09/01 00:43:05;;;;;;;5.80;3.70;;;;;;;26.47;42.58;100683.59;110825;1234;65815;-87
2021/09/01 00:46:11;;;;;;;5.50;3.70;;;;;;;26.47;42.58;100686.30;110970;1229;61041;-85
2021/09/01 00:49:09;;;;;;;6.30;4.20;;;;;;;26.46;42.69;100682.40;111045;1233;61218;-86
2021/09/01 00:51:57;;;;;;;7.10;3.90;;;;;;;26.46;42.69;100681.89;111101;1227;64636;-88
2021/09/01 00:54:53;;;;;;;6.30;3.70;;;;;;;26.47;42.65;100685.82;111284;1227;75417;-88
2021/09/01 00:57:40;;;;;;;;;;;;;;;;;;;;;
2021/09/01 01:04:02;;;;;;;5.30;3.70;;;;;;;26.46;42.61;100688.23;111764;1223;65288;-88
2021/09/01 01:06:59;;;;;;;;;;;;;;;;;;;;;
2021/09/01 01:10:02;;;;;;;6.30;3.90;;;;;;;26.45;42.66;100683.80;112152;1225;61113;-85
2021/09/01 01:12:58;;;;;;;7.30;3.50;;;;;;;26.46;42.78;100677.95;112121;1219;61101;-88
2021/09/01 01:15:44;;;;;;;7.40;3.70;;;;;;;26.45;42.77;100675.48;111817;1219;72401;-83
2021/09/01 01:18:48;;;;;;;5.60;3.50;;;;;;;26.45;42.75;100674.60;111922;1226;75976;-89
2021/09/01 01:21:51;;;;;;;5.30;3.90;;;;;;;26.44;42.94;100674.27;111990;1219;61001;-86
2021/09/01 01:25:27;;;;;;;;;;;;;;;;;;;;;
2021/09/01 01:28:22;;;;;;;5.50;3.40;;;;;;;26.43;42.82;100677.79;111580;1225;64750;-84
2021/09/01 01:31:04;;;;;;;5.70;3.70;;;;;;;26.44;42.93;100677.70;111116;1224;66466;-79
2021/09/01 01:33:58;;;;;;;5.70;3.60;;;;;;;26.44;42.91;100672.70;111160;1225;60995;-87
2021/09/01 01:37:02;;;;;;;;;;;;;;;;;;;;;
2021/09/01 01:39:55;;;;;;;4.50;3.30;;;;;;;26.44;42.91;100659.02;111286;1224;63780;-83
2021/09/01 01:42:43;;;;;;;6.10;3.70;;;;;;;26.43;42.89;100652.20;111298;1224;65754;-87
2021/09/01 01:45:32;;;;;;;;;;;;;;;;;;;;;
2021/09/01 01:48:21;;;;;;;6.60;4.10;;;;;;;26.42;42.96;100643.59;111387;1230;61201;-84
2021/09/01 01:51:02;;;;;;;;;;;;;;;;;;;;;
2021/09/01 01:53:55;;;;;;;6.10;3.80;;;;;;;26.42;42.89;100648.85;111655;1228;65561;-83
2021/09/01 01:57:01;;;;;;;6.20;3.80;;;;;;;26.42;42.89;100649.56;111707;1224;61014;-84
2021/09/01 01:59:58;;;;;;;7.00;3.70;;;;;;;26.42;43.05;100650.61;111710;1222;61270;-83
2021/09/01 02:02:58;;;;;;;4.70;3.30;;;;;;;26.42;43.08;100645.45;111915;1218;63752;-88
2021/09/01 02:05:57;;;;;;;;;;;;;;;;;;;;;
2021/09/01 02:08:43;;;;;;;5.90;3.90;;;;;;;26.42;43.07;100639.33;112296;1214;60986;-90
2021/09/01 02:11:59;;;;;;;6.00;3.60;;;;;;;26.41;43.13;100639.77;112639;1221;61424;-84
2021/09/01 02:14:49;;;;;;;;;;;;;;;;;;;;;
2021/09/01 02:17:54;;;;;;;5.20;3.60;;;;;;;26.42;43.15;100645.09;112778;1215;74092;-90
2021/09/01 02:20:43;;;;;;;4.80;3.30;;;;;;;26.41;43.24;100646.77;112822;1220;61050;-91
2021/09/01 02:23:26;;;;;;;;;;;;;;;;;;;;;
2021/09/01 02:26:15;;;;;;;5.80;3.70;;;;;;;26.41;43.32;100649.69;112388;1216;64789;-87
2021/09/01 02:29:10;;;;;;;4.60;3.40;;;;;;;26.40;43.13;100655.15;112031;1218;65922;-85
2021/09/01 02:31:50;;;;;;;4.70;3.50;;;;;;;26.41;43.25;100659.62;111979;1218;61023;-84
2021/09/01 02:34:54;;;;;;;6.20;3.60;;;;;;;26.41;43.13;100663.04;112074;1225;61063;-85
2021/09/01 02:37:26;;;;;;;6.40;3.60;;;;;;;26.40;43.19;100662.76;111692;1219;62877;-82
2021/09/01 02:39:54;;;;;;;5.00;3.10;;;;;;;26.41;43.12;100665.54;111521;1220;66915;-83
2021/09/01 02:42:26;;;;;;;7.60;3.50;;;;;;;26.41;43.32;100668.09;111520;1221;61015;-83
2021/09/01 02:45:01;;;;;;;;;;;;;;;;;;;;;
2021/09/01 02:47:42;;;;;;;5.70;3.50;;;;;;;26.41;43.32;100664.27;111614;1227;73575;-82
2021/09/01 02:50:28;;;;;;;4.90;3.30;;;;;;;26.42;43.26;100663.86;111513;1221;74868;-83
2021/09/01 02:53:23;;;;;;;4.50;3.20;;;;;;;26.41;43.30;100665.88;111918;1219;61139;-85
2021/09/01 02:55:54;;;;;;;4.70;3.10;;;;;;;26.41;43.20;100670.23;111932;1219;61135;-84
2021/09/01 02:59:04;;;;;;;4.70;3.40;;;;;;;26.42;43.52;100668.73;111868;1219;73949;-84
2021/09/01 03:01:41;;;;;;;5.10;3.10;;;;;;;26.41;43.33;100663.38;112352;1223;74479;-89
2021/09/01 03:04:56;;;;;;;6.60;3.30;;;;;;;26.41;43.41;100667.38;112113;1226;60978;-87
2021/09/01 03:07:44;;;;;;;4.90;3.20;;;;;;;26.40;43.36;100664.55;112280;1223;61040;-87
2021/09/01 03:10:33;;;;;;;4.80;3.50;;;;;;;26.40;43.57;100666.79;112420;1223;73400;-85
2021/09/01 03:13:39;;;;;;;5.30;3.40;;;;;;;26.40;43.45;100664.95;112323;1223;75700;-90
2021/09/01 03:16:46;;;;;;;4.90;3.10;;;;;;;26.39;43.50;100662.65;112575;1222;62554;-86
2021/09/01 03:19:23;;;;;;;4.80;3.30;;;;;;;26.39;43.43;100664.34;112710;1223;61470;-86
2021/09/01 03:22:01;;;;;;;4.60;3.10;;;;;;;26.38;43.45;100666.20;112586;1215;63463;-86
2021/09/01 03:24:58;;;;;;;;;;;;;;;26.38;43.45;100664.74;112708;1222;74378;-83
2021/09/01 03:27:44;;;;;;;4.60;2.90;;;;;;;26.36;43.35;100674.88;112689;1221;61310;-89
2021/09/01 03:30:40;;;;;;;4.60;2.70;;;;;;;26.37;43.38;100670.49;112670;1222;61469;-83
2021/09/01 03:33:42;;;;;;;;;;;;;;;;;;;;;
2021/09/01 03:36:28;;;;;;;;;;;;;;;;;;;;;
2021/09/01 03:38:59;;;;;;;4.20;3.00;;;;;;;26.36;43.38;100683.33;112432;1223;61093;-88
2021/09/01 03:42:08;;;;;;;5.80;3.60;;;;;;;26.37;43.49;100691.77;112580;1220;60956;-85
2021/09/01 03:44:56;;;;;;;4.50;3.10;;;;;;;26.36;43.55;100693.11;112789;1213;72331;-86
2021/09/01 03:47:45;;;;;;;5.00;2.80;;;;;;;26.36;43.56;100693.25;112767;1221;74297;-87
2021/09/01 03:50:37;;;;;;;4.50;2.90;;;;;;;26.36;43.59;100693.14;112791;1219;60988;-85
2021/09/01 03:53:05;;;;;;;4.50;3.20;;;;;;;26.36;43.51;100694.52;113127;1220;61016;-83
2021/09/01 03:55:54;;;;;;;4.40;3.10;;;;;;;26.36;43.48;100695.21;112913;1221;60983;-83
2021/09/01 03:58:49;;;;;;;4.50;2.90;;;;;;;26.37;43.50;100693.00;112096;1225;74407;-82
2021/09/01 04:01:48;;;;;;;3.70;2.80;;;;;;;26.36;43.63;100698.86;111695;1222;61620;-86
2021/09/01 04:04:36;;;;;;;;;;;;;;;26.37;43.53;100696.45;111617;1230;61051;-85
2021/09/01 04:07:37;;;;;;;4.10;2.70;;;;;;;26.34;43.53;100695.97;111724;1228;73328;-87
2021/09/01 04:10:23;;;;;;;;;;;;;;;26.35;43.61;100699.30;111722;1225;75436;-84
2021/09/01 04:13:22;;;;;;;5.70;2.80;;;;;;;26.33;43.56;100699.84;111817;1225;61155;-87
2021/09/01 04:16:12;;;;;;;3.90;2.80;;;;;;;26.34;43.43;100703.80;112105;1222;61053;-84
2021/09/01 04:19:29;;;;;;;4.10;3.00;;;;;;;26.34;43.57;100710.06;112079;1222;72533;-88
2021/09/01 04:22:20;;;;;;;4.40;2.90;;;;;;;26.34;43.55;100711.01;112110;1225;66158;-84
2021/09/01 04:25:06;;;;;;;4.40;2.90;;;;;;;26.34;43.44;100710.45;112096;1222;62057;-86
2021/09/01 04:28:03;;;;;;;5.20;3.00;;;;;;;26.35;43.71;100709.46;112074;1219;61174;-85
2021/09/01 04:30:45;;;;;;;3.70;2.70;;;;;;;26.34;43.58;100715.83;112100;1225;64881;-82
2021/09/01 04:33:45;;;;;;;;;;;;;;;;;;;;;
2021/09/01 04:36:19;;;;;;;5.10;3.20;;;;;;;26.35;43.72;100713.94;112140;1226;60973;-88
2021/09/01 04:38:59;;;;;;;4.70;3.40;;;;;;;26.35;43.62;100711.77;112516;1219;61149;-86
2021/09/01 04:42:01;;;;;;;;;;;;;;;;;;;;;
2021/09/01 04:44:43;;;;;;;4.50;3.20;;;;;;;26.34;43.62;100715.33;112807;1219;74833;-89
2021/09/01 04:47:34;;;;;;;5.80;3.30;;;;;;;26.34;43.55;100721.82;112267;1222;61054;-85
2021/09/01 04:50:37;;;;;;;5.70;3.30;;;;;;;26.33;43.44;100721.21;112552;1219;61105;-80
2021/09/01 04:53:33;;;;;;;4.50;3.50;;;;;;;26.32;43.29;100717.48;112103;1219;63713;-85
2021/09/01 04:56:26;;;;;;;5.00;3.30;;;;;;;26.32;43.15;100714.64;112087;1221;75122;-87
2021/09/01 04:59:37;;;;;;;6.00;3.30;;;;;;;26.31;43.01;100714.89;112143;1222;60941;-87
2021/09/01 05:02:22;;;;;;;5.00;3.50;;;;;;;26.29;42.89;100720.11;112092;1223;61012;-86
2021/09/01 05:05:34;;;;;;;;;;;;;;;;;;;;;
2021/09/01 05:08:38;;;;;;;9.20;4.10;;;;;;;26.27;42.57;100718.34;111835;1227;75515;-83
2021/09/01 05:11:28;;;;;;;7.20;3.70;;;;;;;26.26;42.62;100716.81;111567;1226;60996;-86
2021/09/01 05:14:12;;;;;;;10.30;4.70;;;;;;;26.26;42.51;100720.23;111667;1224;60985;-84
2021/09/01 05:17:00;;;;;;;11.40;4.60;;;;;;;26.25;42.18;100717.55;111712;1228;72249;-83
2021/09/01 05:19:50;;;;;;;7.80;4.50;;;;;;;26.25;42.14;100721.23;111647;1225;75367;-83
2021/09/01 05:22:36;;;;;;;9.70;4.50;;;;;;;26.24;41.92;100716.59;111662;1222;61600;-88
2021/09/01 05:26:00;;;;;;;;;;;;;;;;;;;;;
2021/09/01 05:28:48;;;;;;;;;;;;;;;;;;;;;
2021/09/01 05:31:49;;;;;;;9.30;4.10;;;;;;;26.23;41.40;100718.67;111146;1234;74188;-83
2021/09/01 05:34:45;;;;;;;10.40;4.30;;;;;;;26.22;41.39;100711.89;111064;1233;61498;-88
2021/09/01 05:37:42;;;;;;;8.00;4.00;;;;;;;26.22;41.21;100708.27;110557;1235;59207;-85
2021/09/01 05:40:28;;;;;;;11.80;4.40;;;;;;;26.23;41.04;100705.90;110536;1230;73687;-83
2021/09/01 05:43:40;;;;;;;8.60;4.00;;;;;;;26.23;41.08;100707.31;110854;1232;74794;-85
2021/09/01 05:46:23;;;;;;;9.30;4.30;;;;;;;26.23;40.86;100710.41;110681;1237;61750;-82
2021/09/01 05:48:54;;;;;;;10.10;3.80;;;;;;;26.23;40.75;100704.22;110260;1235;61110;-84
2021/09/01 05:51:40;;;;;;;8.70;4.30;;;;;;;26.24;40.72;100705.05;110192;1235;73371;-84
2021/09/01 05:54:29;;;;;;;;;;;;;;;;;;;;;
2021/09/01 05:57:15;;;;;;;6.10;4.00;;;;;;;26.26;40.61;100701.27;110632;1235;60985;-84
2021/09/01 06:00:14;;;;;;;7.10;4.30;;;;;;;26.27;40.48;100696.87;110558;1231;61426;-83
2021/09/01 06:02:53;;;;;;;6.50;4.00;;;;;;;26.27;40.27;100694.50;110529;1230;72649;-83
2021/09/01 06:05:36;;;;;;;10.30;4.20;;;;;;;26.28;40.25;100689.00;110832;1234;74969;-87
2021/09/01 06:08:13;;;;;;;8.70;4.40;;;;;;;26.27;40.23;100681.11;110796;1226;60983;-85
2021/09/01 06:10:43;;;;;;;9.00;4.20;;;;;;;26.28;40.12;100677.27;111089;1229;61021;-84
2021/09/01 06:13:20;;;;;;;8.70;4.40;;;;;;;26.28;40.06;100672.42;111298;1231;72457;-87
2021/09/01 06:15:49;;;;;;;8.60;4.20;;;;;;;26.27;39.89;100673.91;111844;1222;74160;-83
2021/09/01 06:18:20;;;;;;;7.30;4.20;;;;;;;26.27;39.64;100672.17;111741;1222;61137;-86
2021/09/01 06:21:06;;;;;;;8.30;4.20;;;;;;;26.26;39.77;100667.90;111873;1219;60947;-83
2021/09/01 06:23:58;;;;;;;5.60;3.90;;;;;;;26.25;39.65;100672.89;112011;1217;72871;-85
2021/09/01 06:26:29;;;;;;;7.00;4.00;;;;;;;26.25;39.56;100665.45;112527;1219;75019;-86
2021/09/01 06:29:02;;;;;;;8.80;3.70;;;;;;;26.26;39.49;100667.36;112371;1219;61455;-83
2021/09/01 06:31:50;;;;;;;7.30;4.40;;;;;;;26.27;39.48;100663.29;112205;1215;60982;-84
2021/09/01 06:34:28;;;;;;;;;;;;;;;;;;;;;
2021/09/01 06:37:15;;;;;;;10.50;4.40;;;;;;;26.23;39.20;100661.29;112560;1218;65762;-86
2021/09/01 06:39:53;;;;;;;8.30;4.50;;;;;;;26.21;39.14;100668.39;112319;1214;61149;-84
2021/09/01 06:42:27;;;;;;;8.30;4.10;;;;;;;26.21;39.21;100676.52;112211;1221;61178;-82
2021/09/01 06:45:13;;;;;;;8.80;4.60;;;;;;;26.21;39.06;100683.14;112381;1222;73889;-88
2021/09/01 06:47:46;;;;;;;6.50;4.40;;;;;;;26.22;39.14;100676.21;112358;1223;66661;-83
2021/09/01 06:50:40;;;;;;;9.50;4.60;;;;;;;26.23;39.08;100669.26;112474;1219;60998;-87
2021/09/01 06:53:09;;;;;;;10.20;4.20;;;;;;;26.23;38.96;100665.98;112529;1222;61011;-89
2021/09/01 06:56:00;;;;;;;15.70;4.50;;;;;;;26.23;39.02;100668.88;112353;1216;62590;-86
2021/09/01 06:58:57;;;;;;;15.90;4.50;;;;;;;26.24;38.86;100673.64;112307;1222;65650;-83
2021/09/01 07:01:26;;;;;;;13.60;4.40;;;;;;;26.26;39.07;100674.77;112327;1215;61095;-87
2021/09/01 07:04:04;;;;;;;;;;;;;;;;;;;;;
2021/09/01 07:07:21;;;;;;;20.40;4.60;;;;;;;26.26;39.12;100671.63;112500;1218;62547;-82
2021/09/01 07:09:55;;;;;;;;;;;;;;;26.28;39.12;100669.92;112555;1219;65520;-86
2021/09/01 07:12:49;;;;;;;16.90;4.00;;;;;;;26.27;39.02;100673.58;112568;1221;61154;-88
2021/09/01 07:15:38;;;;;;;32.80;4.70;;;;;;;26.28;39.17;100672.39;112416;1221;61154;-83
2021/09/01 07:18:27;;;;;;;;;;;;;;;26.29;39.22;100672.52;112336;1217;64449;-83
2021/09/01 07:20:54;;;;;;;12.80;3.90;;;;;;;26.28;39.36;100671.48;112026;1216;75096;-82
2021/09/01 07:23:20;;;;;;;45.20;5.40;;;;;;;26.30;39.24;100670.09;112017;1216;61206;-82
2021/09/01 07:26:03;;;;;;;34.10;5.80;;;;;;;26.30;39.30;100673.27;112220;1214;61069;-83
2021/09/01 07:28:40;;;;;;;;;;;;;;;;;;;;;
2021/09/01 07:31:22;;;;;;;14.80;4.90;;;;;;;26.33;39.36;100668.84;112034;1219;65765;-82
2021/09/01 07:34:30;;;;;;;12.50;4.20;;;;;;;26.34;39.30;100667.55;111789;1217;61063;-82
2021/09/01 07:37:21;;;;;;;32.60;5.40;;;;;;;26.35;39.31;100671.04;111875;1228;61009;-86
2021/09/01 07:39:50;;;;;;;8.50;4.10;;;;;;;26.36;39.26;100674.65;111674;1225;72312;-83
2021/09/01 07:42:21;;;;;;;17.50;4.60;;;;;;;26.37;39.26;100671.11;111873;1226;75663;-82
2021/09/01 07:45:17;;;;;;;15.70;4.50;;;;;;;26.38;39.20;100667.47;111809;1228;60993;-85
2021/09/01 07:48:04;;;;;;;20.30;4.40;;;;;;;26.38;39.32;100663.45;111773;1222;61082;-83
2021/09/01 07:50:39;;;;;;;14.70;4.50;;;;;;;26.39;39.43;100658.70;111697;1217;64755;-83
2021/09/01 07:53:16;;;;;;;13.80;4.40;;;;;;;26.40;39.26;100658.13;111680;1226;65913;-82
2021/09/01 07:55:42;;;;;;;23.00;4.60;;;;;;;26.40;39.38;100656.10;111654;1225;61359;-83
2021/09/01 07:58:17;;;;;;;17.90;4.50;;;;;;;26.40;39.38;100653.90;111784;1225;61046;-83
2021/09/01 08:00:52;;;;;;;14.30;4.40;;;;;;;26.40;39.21;100651.56;111691;1228;64008;-85
2021/09/01 08:03:18;;;;;;;20.80;4.90;;;;;;;26.40;39.31;100651.19;111500;1226;66762;-85
2021/09/01 08:05:53;;;;;;;13.60;4.30;;;;;;;26.40;39.49;100648.11;111646;1223;61139;-82
2021/09/01 08:08:30;;;;;;;18.70;4.60;;;;;;;26.41;39.48;100644.45;111922;1217;61053;-84
2021/09/01 08:11:11;;;;;;;17.00;4.40;;;;;;;26.41;39.57;100646.75;111816;1219;63972;-84
2021/09/01 08:13:49;;;;;;;21.20;4.70;;;;;;;26.42;39.52;100643.30;112646;1218;74261;-83
2021/09/01 08:16:29;;;;;;;23.80;4.60;;;;;;;26.41;39.54;100648.02;112579;1219;60999;-83
2021/09/01 08:18:57;;;;;;;18.20;4.30;;;;;;;26.42;39.62;100649.42;112503;1218;60992;-83
2021/09/01 08:21:32;;;;;;;24.30;5.30;;;;;;;26.42;39.74;100653.31;112479;1212;73515;-83
2021/09/01 08:23:58;;;;;;;28.60;4.90;;;;;;;26.43;39.80;100651.66;112544;1216;66838;-84
2021/09/01 08:26:36;;;;;;;31.10;4.80;;;;;;;26.43;39.94;100644.27;112370;1214;61075;-81
2021/09/01 08:29:07;;;;;;;34.90;6.70;;;;;;;26.43;40.05;100646.09;112615;1212;61075;-82
2021/09/01 08:31:32;;;;;;;37.40;5.10;;;;;;;26.43;39.98;100641.35;112376;1219;73300;-82
2021/09/01 08:33:58;;;;;;;27.20;5.10;;;;;;;26.44;40.01;100648.15;112348;1212;61118;-84
2021/09/01 08:36:27;;;;;;;27.90;5.30;;;;;;;26.43;40.09;100644.94;112221;1219;59161;-83
2021/09/01 08:38:55;;;;;;;40.90;6.40;;;;;;;26.44;40.04;100645.61;112153;1211;61579;-82
2021/09/01 08:41:30;;;;;;;27.90;4.80;;;;;;;26.45;40.16;100650.03;112296;1211;72280;-83
2021/09/01 08:43:56;;;;;;;32.90;4.90;;;;;;;26.44;40.26;100646.67;113184;1211;66853;-84
2021/09/01 08:46:22;;;;;;;25.20;4.90;;;;;;;26.43;40.00;100646.20;112308;1216;61083;-82
2021/09/01 08:48:47;;;;;;;19.30;4.30;;;;;;;26.44;40.13;100642.95;112226;1211;61069;-83
2021/09/01 08:51:13;;;;;;;20.80;4.80;;;;;;;26.43;39.97;100641.33;112482;1211;60488;-83
2021/09/01 08:53:39;;;;;;;18.20;4.00;;;;;;;26.42;40.03;100642.55;112375;1219;60936;-83
2021/09/01 08:56:08;;;;;;;22.10;5.00;;;;;;;26.42;39.75;100635.29;112239;1211;61552;-83
2021/09/01 08:58:43;;;;;;;32.20;5.10;;;;;;;26.42;39.82;100633.89;112595;1213;61033;-88
2021/09/01 09:01:18;;;;;;;15.90;4.30;;;;;;;26.43;39.96;100636.48;112707;1219;72257;-82
2021/09/01 09:04:13;;;;;;;23.40;4.60;;;;;;;26.42;39.79;100637.27;112570;1217;75397;-84
2021/09/01 09:07:01;;;;;;;20.40;5.30;;;;;;;26.41;39.93;100638.34;112646;1216;61005;-83
2021/09/01 09:09:30;;;;;;;23.80;4.90;;;;;;;26.41;39.78;100630.16;112732;1212;61075;-86
2021/09/01 09:12:30;;;;;;;23.30;4.20;;;;;;;26.42;39.91;100629.38;112732;1220;73334;-87
2021/09/01 09:15:32;;;;;;;17.10;4.50;;;;;;;26.43;39.93;100620.31;112818;1219;74430;-84
2021/09/01 09:18:31;;;;;;;20.00;4.50;;;;;;;26.44;39.89;100626.00;112950;1219;61583;-86
2021/09/01 09:21:32;;;;;;;15.50;3.90;;;;;;;26.43;39.97;100622.23;112911;1210;60985;-84
2021/09/01 09:24:40;;;;;;;14.40;4.10;;;;;;;26.40;39.80;100619.30;112343;1215;71328;-84
2021/09/01 09:27:11;;;;;;;15.40;3.80;;;;;;;26.40;39.93;100611.52;112160;1222;74594;-85
2021/09/01 09:30:39;;;;;;;18.30;4.50;;;;;;;26.40;39.95;100608.63;112475;1222;60967;-87
2021/09/01 09:33:21;;;;;;;43.10;5.80;;;;;;;26.40;39.91;100602.99;112241;1222;61593;-89
2021/09/01 09:36:37;;;;;;;;;;;;;;;;;;;;;
2021/09/01 09:39:56;;;;;;;19.10;4.50;;;;;;;26.36;39.90;100592.21;112438;1215;72986;-87
2021/09/01 09:43:00;;;;;;;29.30;5.20;;;;;;;26.37;39.98;100588.42;112427;1223;60980;-89
2021/09/01 09:46:17;;;;;;;38.10;5.80;;;;;;;26.37;39.93;100580.27;112035;1219;60979;-90
2021/09/01 09:49:07;;;;;;;43.10;6.40;;;;;;;26.37;40.00;100582.95;112078;1224;73724;-88
2021/09/01 09:51:51;;;;;;;52.50;7.70;;;;;;;26.37;39.85;100574.87;111713;1222;73440;-86
2021/09/01 09:54:45;;;;;;;49.20;6.80;;;;;;;26.37;39.91;100573.71;111718;1225;61024;-86
2021/09/01 09:57:35;;;;;;;39.30;6.30;;;;;;;26.38;39.88;100566.29;111592;1221;62479;-84
2021/09/01 10:00:51;;;;;;;49.90;6.70;;;;;;;26.37;39.83;100561.13;111926;1225;62945;-85
2021/09/01 10:03:52;;;;;;;42.90;5.90;;;;;;;26.35;39.70;100558.66;111681;1222;66288;-82
2021/09/01 10:07:01;;;;;;;;;;;;;;;;;;;;;
2021/09/01 10:10:00;;;;;;;41.10;6.00;;;;;;;26.35;39.65;100555.01;111034;1227;61176;-86
2021/09/01 10:13:19;;;;;;;41.30;7.90;;;;;;;26.36;39.60;100553.14;111058;1225;71232;-84
2021/09/01 10:16:14;;;;;;;47.90;7.20;;;;;;;26.37;39.61;100542.76;110937;1232;74393;-90
2021/09/01 10:19:26;;;;;;;45.10;7.30;;;;;;;26.37;39.63;100538.38;110940;1227;61009;-86
2021/09/01 10:22:18;;;;;;;33.70;6.50;;;;;;;26.37;39.49;100542.66;110584;1229;60967;-84
2021/09/01 10:25:04;;;;;;;37.20;6.40;;;;;;;26.39;39.55;100536.23;110588;1231;72339;-83
2021/09/01 10:27:42;;;;;;;45.40;6.90;;;;;;;26.40;39.66;100541.92;110444;1230;75464;-87
2021/09/01 10:31:05;;;;;;;30.60;6.30;;;;;;;26.40;39.56;100544.73;110372;1231;62606;-83
2021/09/01 10:33:55;;;;;;;23.00;5.50;;;;;;;26.41;39.55;100541.79;110332;1233;61256;-88
2021/09/01 10:36:54;;;;;;;15.30;4.40;;;;;;;26.42;39.62;100540.59;110154;1235;73643;-83
2021/09/01 10:39:58;;;;;;;29.50;5.00;;;;;;;26.42;39.62;100536.65;110128;1235;66863;-83
2021/09/01 10:43:05;;;;;;;12.40;4.00;;;;;;;26.42;39.52;100533.59;110294;1235;60995;-85
2021/09/01 10:46:41;;;;;;;35.40;6.00;;;;;;;26.42;39.32;100536.46;110254;1238;62018;-86
2021/09/01 10:49:26;;;;;;;;;;;;;;;;;;;;;
2021/09/01 10:52:13;;;;;;;16.10;4.10;;;;;;;26.42;39.33;100540.57;109950;1244;65983;-83
2021/09/01 10:54:55;;;;;;;66.30;8.10;;;;;;;26.43;39.12;100534.75;109875;1239;61122;-83
2021/09/01 10:57:27;;;;;;;14.90;3.60;;;;;;;26.43;39.21;100530.36;109722;1237;61004;-84
2021/09/01 11:00:02;;;;;;;20.40;4.20;;;;;;;26.43;39.23;100530.05;109893;1236;65209;-84
2021/09/01 11:03:00;;;;;;;15.60;3.50;;;;;;;26.44;39.16;100520.89;110050;1235;75515;-83
2021/09/01 11:05:27;;;;;;;21.10;4.50;;;;;;;26.45;39.17;100530.81;110086;1235;61069;-83
2021/09/01 11:08:04;;;;;;;14.00;2.90;;;;;;;26.45;38.97;100526.59;110246;1235;61281;-85
2021/09/01 11:11:02;;;;;;;32.90;6.30;;;;;;;26.46;38.92;100524.22;110464;1233;72348;-83
2021/09/01 11:14:05;;;;;;;26.50;5.60;;;;;;;26.43;38.80;100519.55;110484;1230;65762;-88
2021/09/01 11:17:07;;;;;;;;;;;;;;;;;;;;;
2021/09/01 11:20:23;;;;;;;15.10;3.90;;;;;;;26.41;38.45;100516.87;110561;1233;60999;-86
2021/09/01 11:23:09;;;;;;;13.40;3.60;;;;;;;26.41;38.62;100516.38;110372;1233;63670;-86
2021/09/01 11:26:05;;;;;;;38.40;5.50;;;;;;;26.41;38.49;100516.66;110680;1232;74485;-88
2021/09/01 11:29:08;;;;;;;30.50;5.80;;;;;;;26.42;38.55;100519.51;110557;1238;61268;-88
2021/09/01 11:32:04;;;;;;;14.00;4.50;;;;;;;26.40;38.43;100514.05;110591;1233;61216;-87
2021/09/01 11:34:55;;;;;;;19.90;5.20;;;;;;;26.40;38.71;100509.02;110317;1233;65091;-86
2021/09/01 11:38:16;;;;;;;21.00;5.00;;;;;;;26.41;38.58;100506.48;110146;1244;65279;-88
2021/09/01 11:40:52;;;;;;;16.20;3.80;;;;;;;26.39;38.53;100504.46;109825;1241;61003;-84
2021/09/01 11:44:04;;;;;;;11.40;3.10;;;;;;;26.40;38.55;100503.09;109556;1245;61033;-85
2021/09/01 11:46:44;;;;;;;15.30;3.90;;;;;;;26.40;38.46;100501.77;109134;1243;62555;-84
2021/09/01 11:49:27;;;;;;;10.50;3.40;;;;;;;26.41;38.34;100495.18;109152;1242;65765;-83
2021/09/01 11:52:09;;;;;;;32.70;6.70;;;;;;;26.43;38.56;100502.23;109528;1239;60995;-83
2021/09/01 11:55:11;;;;;;;5.90;3.10;;;;;;;26.44;38.45;100499.98;109722;1239;61130;-85
2021/09/01 11:58:11;;;;;;;8.90;3.30;;;;;;;26.45;38.30;100495.61;109727;1247;63929;-84
2021/09/01 12:01:04;;;;;;;22.20;4.90;;;;;;;26.45;38.21;100494.48;110093;1239;65623;-88
2021/09/01 12:04:29;;;;;;;23.70;5.40;;;;;;;26.47;38.38;100489.86;110330;1235;60908;-86
2021/09/01 12:07:45;;;;;;;;;;;;;;;;;;;;;
2021/09/01 12:10:55;;;;;;;15.60;3.90;;;;;;;26.47;38.14;100489.27;110345;1233;63995;-95
2021/09/01 12:13:55;;;;;;;15.50;4.90;;;;;;;26.48;38.35;100478.36;110080;1237;75519;-92
2021/09/01 12:16:48;;;;;;;14.20;4.10;;;;;;;26.47;38.10;100473.79;110126;1236;61043;-81
2021/09/01 12:20:16;;;;;;;10.20;3.40;;;;;;;26.45;38.20;100466.51;110702;1236;61040;-88
2021/09/01 12:23:27;;;;;;;;;;;;;;;;;;;;;
2021/09/01 12:26:35;;;;;;;24.60;6.60;;;;;;;26.45;38.02;100460.95;110614;1233;65822;-88
2021/09/01 12:29:53;;;;;;;17.70;5.00;;;;;;;26.46;38.32;100457.92;110585;1232;61015;-87
2021/09/01 12:33:06;;;;;;;13.40;4.70;;;;;;;26.47;38.12;100452.84;110428;1233;61041;-87
2021/09/01 12:36:05;;;;;;;;;;;;;;;;;;;;;
2021/09/01 12:39:09;;;;;;;11.40;5.90;;;;;;;26.47;38.26;100443.77;110591;1232;65695;-86
2021/09/01 12:42:07;;;;;;;17.60;7.40;;;;;;;26.49;38.24;100453.38;110514;1233;61082;-88
2021/09/01 12:45:07;;;;;;;;;;;;;;;26.48;38.13;100451.95;110496;1233;61122;-84
2021/09/01 12:48:21;;;;;;;15.10;4.50;;;;;;;26.47;38.37;100454.38;110573;1230;72444;-87
2021/09/01 12:51:15;;;;;;;12.80;4.80;;;;;;;26.48;38.26;100455.02;110608;1233;74513;-87
2021/09/01 12:54:20;;;;;;;15.60;3.70;;;;;;;26.48;38.16;100457.23;110702;1229;61082;-87
2021/09/01 12:57:15;;;;;;;7.80;3.50;;;;;;;26.46;37.93;100454.50;110700;1237;61006;-88
2021/09/01 12:59:56;;;;;;;19.40;4.60;;;;;;;26.46;37.98;100449.66;110690;1227;63832;-82
2021/09/01 13:02:24;;;;;;;14.70;5.60;;;;;;;26.47;37.99;100454.08;110937;1227;65503;-84
2021/09/01 13:05:50;;;;;;;;;;;;;;;;;;;;;
2021/09/01 13:08:26;;;;;;;17.20;5.20;;;;;;;26.49;38.02;100455.14;111727;1221;61134;-83
2021/09/01 13:10:52;;;;;;;14.70;5.20;;;;;;;26.51;38.00;100456.38;111634;1228;63717;-82
2021/09/01 13:13:23;;;;;;;15.90;4.80;;;;;;;26.52;38.04;100453.38;111466;1221;65905;-83
2021/09/01 13:16:18;;;;;;;;;;;;;;;;;;;;;
2021/09/01 13:19:18;;;;;;;;;;;;;;;;;;;;;
2021/09/01 13:22:18;;;;;;;16.50;4.60;;;;;;;26.53;38.25;100471.65;111392;1223;64710;-91
2021/09/01 13:25:07;;;;;;;14.90;4.60;;;;;;;26.55;38.28;100482.64;111936;1220;74745;-90
2021/09/01 13:27:42;;;;;;;14.50;5.00;;;;;;;26.55;38.41;100477.96;112473;1216;60995;-86
2021/09/01 13:30:11;;;;;;;13.80;4.70;;;;;;;26.55;38.38;100473.42;112173;1216;61222;-85
2021/09/01 13:33:35;;;;;;;12.60;4.10;;;;;;;26.56;38.50;100477.16;111985;1225;73937;-87
2021/09/01 13:36:33;;;;;;;;;;;;;;;;;;;;;
2021/09/01 13:39:29;;;;;;;13.00;4.30;;;;;;;26.55;38.57;100480.35;111791;1222;61012;-84
2021/09/01 13:42:35;;;;;;;14.70;4.30;;;;;;;26.55;38.48;100475.60;111767;1222;61014;-85
2021/09/01 13:45:41;;;;;;;;;;;;;;;;;;;;;
2021/09/01 13:48:27;;;;;;;9.80;3.90;;;;;;;26.54;38.76;100475.48;111024;1226;65758;-86
2021/09/01 13:51:24;;;;;;;9.50;3.90;;;;;;;26.55;38.80;100481.62;110970;1232;61066;-90
2021/09/01 13:54:02;;;;;;;9.90;4.20;;;;;;;26.55;38.87;100483.95;110836;1229;61018;-84
2021/09/01 13:57:19;;;;;;;;;;;;;;;;;;;;;